sensor_id;sensor_type;location;lat;lon;timestamp;temperature;humidity
871;DHT22;422;51.280;7.236;2023-12-20T00:01:03;7.30;99.90
871;DHT22;422;51.280;7.236;2023-12-20T00:03:30;7.30;99.90
871;DHT22;422;51.280;7.236;2023-12-20T00:05:59;7.20;99.90
871;DHT22;422;51.280;7.236;2023-12-20T00:08:26;7.00;99.90
871;DHT22;422;51.280;7.236;2023-12-20T00:10:53;7.00;99.90
871;DHT22;422;51.280;7.236;2023-12-20T00:13:20;7.00;99.90
871;DHT22;422;51.280;7.236;2023-12-20T00:15:49;6.90;99.90
871;DHT22;422;51.280;7.236;2023-12-20T00:18:16;6.90;99.90
871;DHT22;422;51.280;7.236;2023-12-20T00:20:44;6.90;99.90
871;DHT22;422;51.280;7.236;2023-12-20T00:23:11;6.80;99.90
871;DHT22;422;51.280;7.236;2023-12-20T00:25:39;6.80;99.90
871;DHT22;422;51.280;7.236;2023-12-20T00:28:06;6.80;99.90
871;DHT22;422;51.280;7.236;2023-12-20T00:30:33;6.80;99.90
871;DHT22;422;51.280;7.236;2023-12-20T00:33:02;6.80;99.90
871;DHT22;422;51.280;7.236;2023-12-20T00:35:29;6.80;99.90
871;DHT22;422;51.280;7.236;2023-12-20T00:37:57;6.80;99.90
871;DHT22;422;51.280;7.236;2023-12-20T00:40:24;6.80;99.90
871;DHT22;422;51.280;7.236;2023-12-20T00:42:52;6.80;99.90
871;DHT22;422;51.280;7.236;2023-12-20T00:45:18;6.80;99.90
871;DHT22;422;51.280;7.236;2023-12-20T00:47:45;6.80;99.90
871;DHT22;422;51.280;7.236;2023-12-20T00:50:14;6.80;99.90
871;DHT22;422;51.280;7.236;2023-12-20T00:52:41;6.80;99.90
871;DHT22;422;51.280;7.236;2023-12-20T00:55:09;6.80;99.90
871;DHT22;422;51.280;7.236;2023-12-20T00:57:36;6.80;99.90
871;DHT22;422;51.280;7.236;2023-12-20T01:00:03;6.80;99.90
871;DHT22;422;51.280;7.236;2023-12-20T01:02:31;6.70;99.90
871;DHT22;422;51.280;7.236;2023-12-20T01:04:58;6.60;99.90
871;DHT22;422;51.280;7.236;2023-12-20T01:07:27;6.50;99.90
871;DHT22;422;51.280;7.236;2023-12-20T01:09:54;6.50;99.90
871;DHT22;422;51.280;7.236;2023-12-20T01:12:21;6.50;99.90
871;DHT22;422;51.280;7.236;2023-12-20T01:14:48;6.50;99.90
871;DHT22;422;51.280;7.236;2023-12-20T01:17:16;6.50;99.90
871;DHT22;422;51.280;7.236;2023-12-20T01:19:43;6.40;99.90
871;DHT22;422;51.280;7.236;2023-12-20T01:22:10;6.50;99.90
871;DHT22;422;51.280;7.236;2023-12-20T01:24:39;6.40;99.90
871;DHT22;422;51.280;7.236;2023-12-20T01:27:06;6.40;99.90
871;DHT22;422;51.280;7.236;2023-12-20T01:29:32;6.40;99.90
871;DHT22;422;51.280;7.236;2023-12-20T01:31:59;6.30;99.90
871;DHT22;422;51.280;7.236;2023-12-20T01:34:27;6.30;99.90
871;DHT22;422;51.280;7.236;2023-12-20T01:36:54;6.30;99.90
871;DHT22;422;51.280;7.236;2023-12-20T01:39:22;6.30;99.90
871;DHT22;422;51.280;7.236;2023-12-20T01:41:50;6.30;99.90
871;DHT22;422;51.280;7.236;2023-12-20T01:44:17;6.30;99.90
871;DHT22;422;51.280;7.236;2023-12-20T01:46:45;6.40;99.90
871;DHT22;422;51.280;7.236;2023-12-20T01:49:14;6.40;99.90
871;DHT22;422;51.280;7.236;2023-12-20T01:51:42;6.40;99.90
871;DHT22;422;51.280;7.236;2023-12-20T01:54:11;6.40;99.90
871;DHT22;422;51.280;7.236;2023-12-20T01:56:39;6.40;99.90
871;DHT22;422;51.280;7.236;2023-12-20T01:59:08;6.30;99.90
871;DHT22;422;51.280;7.236;2023-12-20T02:01:36;6.30;99.90
871;DHT22;422;51.280;7.236;2023-12-20T02:04:04;6.30;99.90
871;DHT22;422;51.280;7.236;2023-12-20T02:06:34;6.20;99.90
871;DHT22;422;51.280;7.236;2023-12-20T02:09:01;6.20;99.90
871;DHT22;422;51.280;7.236;2023-12-20T02:11:28;6.30;99.90
871;DHT22;422;51.280;7.236;2023-12-20T02:13:58;6.30;99.90
871;DHT22;422;51.280;7.236;2023-12-20T02:16:30;6.20;99.90
871;DHT22;422;51.280;7.236;2023-12-20T02:18:58;6.20;99.90
871;DHT22;422;51.280;7.236;2023-12-20T02:21:32;6.20;99.90
871;DHT22;422;51.280;7.236;2023-12-20T02:24:00;6.10;99.90
871;DHT22;422;51.280;7.236;2023-12-20T02:26:27;6.20;99.90
871;DHT22;422;51.280;7.236;2023-12-20T02:28:55;6.20;99.90
871;DHT22;422;51.280;7.236;2023-12-20T02:31:25;6.20;99.90
871;DHT22;422;51.280;7.236;2023-12-20T02:33:52;6.20;99.90
871;DHT22;422;51.280;7.236;2023-12-20T02:36:19;6.10;99.90
871;DHT22;422;51.280;7.236;2023-12-20T02:38:47;6.10;99.90
871;DHT22;422;51.280;7.236;2023-12-20T02:41:16;6.10;99.90
871;DHT22;422;51.280;7.236;2023-12-20T02:43:44;6.10;99.90
871;DHT22;422;51.280;7.236;2023-12-20T02:46:12;6.00;99.90
871;DHT22;422;51.280;7.236;2023-12-20T02:48:43;6.00;99.90
871;DHT22;422;51.280;7.236;2023-12-20T02:51:10;5.90;99.90
871;DHT22;422;51.280;7.236;2023-12-20T02:53:37;5.80;99.90
871;DHT22;422;51.280;7.236;2023-12-20T02:56:06;5.80;99.90
871;DHT22;422;51.280;7.236;2023-12-20T02:58:33;5.80;99.90
871;DHT22;422;51.280;7.236;2023-12-20T03:01:00;5.80;99.90
871;DHT22;422;51.280;7.236;2023-12-20T03:03:27;5.80;99.90
871;DHT22;422;51.280;7.236;2023-12-20T03:05:55;5.80;99.90
871;DHT22;422;51.280;7.236;2023-12-20T03:08:22;5.90;99.90
871;DHT22;422;51.280;7.236;2023-12-20T03:10:49;5.90;99.90
871;DHT22;422;51.280;7.236;2023-12-20T03:13:18;5.90;99.90
871;DHT22;422;51.280;7.236;2023-12-20T03:15:45;5.90;99.90
871;DHT22;422;51.280;7.236;2023-12-20T03:18:12;5.90;99.90
871;DHT22;422;51.280;7.236;2023-12-20T03:20:39;5.90;99.90
871;DHT22;422;51.280;7.236;2023-12-20T03:23:07;5.80;99.90
871;DHT22;422;51.280;7.236;2023-12-20T03:25:34;5.80;99.90
871;DHT22;422;51.280;7.236;2023-12-20T03:28:01;5.90;99.90
871;DHT22;422;51.280;7.236;2023-12-20T03:30:30;5.80;99.90
871;DHT22;422;51.280;7.236;2023-12-20T03:32:58;5.80;99.90
871;DHT22;422;51.280;7.236;2023-12-20T03:35:25;5.70;99.90
871;DHT22;422;51.280;7.236;2023-12-20T03:37:52;5.80;99.90
871;DHT22;422;51.280;7.236;2023-12-20T03:40:19;5.80;99.90
871;DHT22;422;51.280;7.236;2023-12-20T03:42:46;5.70;99.90
871;DHT22;422;51.280;7.236;2023-12-20T03:45:13;5.70;99.90
871;DHT22;422;51.280;7.236;2023-12-20T03:47:42;5.70;99.90
871;DHT22;422;51.280;7.236;2023-12-20T03:50:09;5.70;99.90
871;DHT22;422;51.280;7.236;2023-12-20T03:52:36;5.70;99.90
871;DHT22;422;51.280;7.236;2023-12-20T03:55:04;5.70;99.90
871;DHT22;422;51.280;7.236;2023-12-20T03:57:31;5.70;99.90
871;DHT22;422;51.280;7.236;2023-12-20T03:59:59;5.70;99.90
871;DHT22;422;51.280;7.236;2023-12-20T04:02:26;5.60;99.90
871;DHT22;422;51.280;7.236;2023-12-20T04:04:54;5.60;99.90
871;DHT22;422;51.280;7.236;2023-12-20T04:07:21;5.70;99.90
871;DHT22;422;51.280;7.236;2023-12-20T04:09:49;5.70;99.90
871;DHT22;422;51.280;7.236;2023-12-20T04:12:16;5.70;99.90
871;DHT22;422;51.280;7.236;2023-12-20T04:14:44;5.70;99.90
871;DHT22;422;51.280;7.236;2023-12-20T04:17:12;5.70;99.90
871;DHT22;422;51.280;7.236;2023-12-20T04:19:41;5.60;99.90
871;DHT22;422;51.280;7.236;2023-12-20T04:22:10;5.70;99.90
871;DHT22;422;51.280;7.236;2023-12-20T04:24:37;5.70;99.90
871;DHT22;422;51.280;7.236;2023-12-20T04:27:04;5.60;99.90
871;DHT22;422;51.280;7.236;2023-12-20T04:29:32;5.70;99.90
871;DHT22;422;51.280;7.236;2023-12-20T04:31:59;5.70;99.90
871;DHT22;422;51.280;7.236;2023-12-20T04:34:26;5.70;99.90
871;DHT22;422;51.280;7.236;2023-12-20T04:36:53;5.60;99.90
871;DHT22;422;51.280;7.236;2023-12-20T04:39:22;5.70;99.90
871;DHT22;422;51.280;7.236;2023-12-20T04:41:49;5.60;99.90
871;DHT22;422;51.280;7.236;2023-12-20T04:44:16;5.60;99.90
871;DHT22;422;51.280;7.236;2023-12-20T04:46:43;5.60;99.90
871;DHT22;422;51.280;7.236;2023-12-20T04:49:11;5.60;99.90
871;DHT22;422;51.280;7.236;2023-12-20T04:51:38;5.60;99.90
871;DHT22;422;51.280;7.236;2023-12-20T04:54:05;5.60;99.90
871;DHT22;422;51.280;7.236;2023-12-20T04:56:33;5.60;99.90
871;DHT22;422;51.280;7.236;2023-12-20T04:59:01;5.60;99.90
871;DHT22;422;51.280;7.236;2023-12-20T05:01:28;5.60;99.90
871;DHT22;422;51.280;7.236;2023-12-20T05:03:55;5.60;99.90
871;DHT22;422;51.280;7.236;2023-12-20T05:06:22;5.50;99.90
871;DHT22;422;51.280;7.236;2023-12-20T05:08:50;5.50;99.90
871;DHT22;422;51.280;7.236;2023-12-20T05:11:17;5.50;99.90
871;DHT22;422;51.280;7.236;2023-12-20T05:13:46;5.50;99.90
871;DHT22;422;51.280;7.236;2023-12-20T05:16:14;5.50;99.90
871;DHT22;422;51.280;7.236;2023-12-20T05:18:43;5.60;99.90
871;DHT22;422;51.280;7.236;2023-12-20T05:21:10;5.60;99.90
871;DHT22;422;51.280;7.236;2023-12-20T05:23:37;5.50;99.90
871;DHT22;422;51.280;7.236;2023-12-20T05:26:05;5.50;99.90
871;DHT22;422;51.280;7.236;2023-12-20T05:28:32;5.50;99.90
871;DHT22;422;51.280;7.236;2023-12-20T05:31:00;5.50;99.90
871;DHT22;422;51.280;7.236;2023-12-20T05:33:28;5.50;99.90
871;DHT22;422;51.280;7.236;2023-12-20T05:35:56;5.50;99.90
871;DHT22;422;51.280;7.236;2023-12-20T05:38:23;5.50;99.90
871;DHT22;422;51.280;7.236;2023-12-20T05:40:50;5.50;99.90
871;DHT22;422;51.280;7.236;2023-12-20T05:43:17;5.50;99.90
871;DHT22;422;51.280;7.236;2023-12-20T05:45:45;5.50;99.90
871;DHT22;422;51.280;7.236;2023-12-20T05:48:14;5.50;99.90
871;DHT22;422;51.280;7.236;2023-12-20T05:50:41;5.50;99.90
871;DHT22;422;51.280;7.236;2023-12-20T05:53:08;5.60;99.90
871;DHT22;422;51.280;7.236;2023-12-20T05:55:35;5.60;99.90
871;DHT22;422;51.280;7.236;2023-12-20T05:58:03;5.50;99.90
871;DHT22;422;51.280;7.236;2023-12-20T06:00:31;5.50;99.90
871;DHT22;422;51.280;7.236;2023-12-20T06:02:58;5.50;99.90
871;DHT22;422;51.280;7.236;2023-12-20T06:05:26;5.60;99.90
871;DHT22;422;51.280;7.236;2023-12-20T06:07:54;5.50;99.90
871;DHT22;422;51.280;7.236;2023-12-20T06:10:23;5.50;99.90
871;DHT22;422;51.280;7.236;2023-12-20T06:12:50;5.50;99.90
871;DHT22;422;51.280;7.236;2023-12-20T06:15:17;5.60;99.90
871;DHT22;422;51.280;7.236;2023-12-20T06:17:45;5.50;99.90
871;DHT22;422;51.280;7.236;2023-12-20T06:20:12;5.60;99.90
871;DHT22;422;51.280;7.236;2023-12-20T06:22:41;5.50;99.90
871;DHT22;422;51.280;7.236;2023-12-20T06:25:08;5.50;99.90
871;DHT22;422;51.280;7.236;2023-12-20T06:27:35;5.50;99.90
871;DHT22;422;51.280;7.236;2023-12-20T06:30:03;5.50;99.90
871;DHT22;422;51.280;7.236;2023-12-20T06:32:31;5.60;99.90
871;DHT22;422;51.280;7.236;2023-12-20T06:34:58;5.50;99.90
871;DHT22;422;51.280;7.236;2023-12-20T06:37:25;5.50;99.90
871;DHT22;422;51.280;7.236;2023-12-20T06:39:53;5.50;99.90
871;DHT22;422;51.280;7.236;2023-12-20T06:42:22;5.50;99.90
871;DHT22;422;51.280;7.236;2023-12-20T06:44:49;5.50;99.90
871;DHT22;422;51.280;7.236;2023-12-20T06:47:16;5.50;99.90
871;DHT22;422;51.280;7.236;2023-12-20T06:49:43;5.50;99.90
871;DHT22;422;51.280;7.236;2023-12-20T06:52:10;5.50;99.90
871;DHT22;422;51.280;7.236;2023-12-20T06:54:38;5.50;99.90
871;DHT22;422;51.280;7.236;2023-12-20T06:57:06;5.50;99.90
871;DHT22;422;51.280;7.236;2023-12-20T06:59:38;5.40;99.90
871;DHT22;422;51.280;7.236;2023-12-20T07:02:05;5.50;99.90
871;DHT22;422;51.280;7.236;2023-12-20T07:04:33;5.50;99.90
871;DHT22;422;51.280;7.236;2023-12-20T07:07:00;5.40;99.90
871;DHT22;422;51.280;7.236;2023-12-20T07:09:27;5.50;99.90
871;DHT22;422;51.280;7.236;2023-12-20T07:11:55;5.50;99.90
871;DHT22;422;51.280;7.236;2023-12-20T07:14:23;5.40;99.90
871;DHT22;422;51.280;7.236;2023-12-20T07:16:50;5.40;99.90
871;DHT22;422;51.280;7.236;2023-12-20T07:19:18;5.50;99.90
871;DHT22;422;51.280;7.236;2023-12-20T07:21:45;5.50;99.90
871;DHT22;422;51.280;7.236;2023-12-20T07:24:12;5.50;99.90
871;DHT22;422;51.280;7.236;2023-12-20T07:26:39;5.50;99.90
871;DHT22;422;51.280;7.236;2023-12-20T07:29:06;5.50;99.90
871;DHT22;422;51.280;7.236;2023-12-20T07:31:35;5.50;99.90
871;DHT22;422;51.280;7.236;2023-12-20T07:34:02;5.50;99.90
871;DHT22;422;51.280;7.236;2023-12-20T07:36:29;5.50;99.90
871;DHT22;422;51.280;7.236;2023-12-20T07:38:56;5.50;99.90
871;DHT22;422;51.280;7.236;2023-12-20T07:41:24;5.50;99.90
871;DHT22;422;51.280;7.236;2023-12-20T07:43:51;5.50;99.90
871;DHT22;422;51.280;7.236;2023-12-20T07:46:21;5.50;99.90
871;DHT22;422;51.280;7.236;2023-12-20T07:48:50;5.60;99.90
871;DHT22;422;51.280;7.236;2023-12-20T07:51:18;5.60;99.90
871;DHT22;422;51.280;7.236;2023-12-20T07:53:46;5.60;99.90
871;DHT22;422;51.280;7.236;2023-12-20T07:56:14;5.60;99.90
871;DHT22;422;51.280;7.236;2023-12-20T07:58:42;5.60;99.90
871;DHT22;422;51.280;7.236;2023-12-20T08:01:10;5.60;99.90
871;DHT22;422;51.280;7.236;2023-12-20T08:03:37;5.60;99.90
871;DHT22;422;51.280;7.236;2023-12-20T08:06:06;5.60;99.90
871;DHT22;422;51.280;7.236;2023-12-20T08:08:33;5.60;99.90
871;DHT22;422;51.280;7.236;2023-12-20T08:11:01;5.60;99.90
871;DHT22;422;51.280;7.236;2023-12-20T08:13:28;5.60;99.90
871;DHT22;422;51.280;7.236;2023-12-20T08:15:56;5.60;99.90
871;DHT22;422;51.280;7.236;2023-12-20T08:18:23;5.60;99.90
871;DHT22;422;51.280;7.236;2023-12-20T08:20:51;5.60;99.90
871;DHT22;422;51.280;7.236;2023-12-20T08:23:21;5.70;99.90
871;DHT22;422;51.280;7.236;2023-12-20T08:25:48;5.60;99.90
871;DHT22;422;51.280;7.236;2023-12-20T08:28:15;5.70;99.90
871;DHT22;422;51.280;7.236;2023-12-20T08:30:43;5.70;99.90
871;DHT22;422;51.280;7.236;2023-12-20T08:33:10;5.70;99.90
871;DHT22;422;51.280;7.236;2023-12-20T08:35:39;5.70;99.90
871;DHT22;422;51.280;7.236;2023-12-20T08:38:06;5.70;99.90
871;DHT22;422;51.280;7.236;2023-12-20T08:40:35;5.70;99.90
871;DHT22;422;51.280;7.236;2023-12-20T08:43:03;5.70;99.90
871;DHT22;422;51.280;7.236;2023-12-20T08:45:31;5.70;99.90
871;DHT22;422;51.280;7.236;2023-12-20T08:47:58;5.70;99.90
871;DHT22;422;51.280;7.236;2023-12-20T08:50:25;5.70;99.90
871;DHT22;422;51.280;7.236;2023-12-20T08:52:53;5.70;99.90
871;DHT22;422;51.280;7.236;2023-12-20T08:55:20;5.70;99.90
871;DHT22;422;51.280;7.236;2023-12-20T08:57:49;5.70;99.90
871;DHT22;422;51.280;7.236;2023-12-20T09:00:17;5.70;99.90
871;DHT22;422;51.280;7.236;2023-12-20T09:02:46;5.80;99.90
871;DHT22;422;51.280;7.236;2023-12-20T09:05:14;5.80;99.90
871;DHT22;422;51.280;7.236;2023-12-20T09:07:41;5.80;99.90
871;DHT22;422;51.280;7.236;2023-12-20T09:10:09;5.80;99.90
871;DHT22;422;51.280;7.236;2023-12-20T09:12:36;5.80;99.90
871;DHT22;422;51.280;7.236;2023-12-20T09:15:08;5.80;99.90
871;DHT22;422;51.280;7.236;2023-12-20T09:17:36;5.80;99.90
871;DHT22;422;51.280;7.236;2023-12-20T09:20:03;5.80;99.90
871;DHT22;422;51.280;7.236;2023-12-20T09:22:32;5.80;99.90
871;DHT22;422;51.280;7.236;2023-12-20T09:25:00;5.80;99.90
871;DHT22;422;51.280;7.236;2023-12-20T09:27:27;5.80;99.90
871;DHT22;422;51.280;7.236;2023-12-20T09:29:55;5.80;99.90
871;DHT22;422;51.280;7.236;2023-12-20T09:32:26;5.80;99.90
871;DHT22;422;51.280;7.236;2023-12-20T09:34:53;5.80;99.90
871;DHT22;422;51.280;7.236;2023-12-20T09:37:20;5.80;99.90
871;DHT22;422;51.280;7.236;2023-12-20T09:39:48;5.90;99.90
871;DHT22;422;51.280;7.236;2023-12-20T09:42:21;5.80;99.90
871;DHT22;422;51.280;7.236;2023-12-20T09:44:50;5.80;99.90
871;DHT22;422;51.280;7.236;2023-12-20T09:47:19;5.80;99.90
871;DHT22;422;51.280;7.236;2023-12-20T09:49:51;5.80;99.90
871;DHT22;422;51.280;7.236;2023-12-20T09:52:20;5.80;99.90
871;DHT22;422;51.280;7.236;2023-12-20T09:54:50;5.80;99.90
871;DHT22;422;51.280;7.236;2023-12-20T09:57:21;5.80;99.90
871;DHT22;422;51.280;7.236;2023-12-20T09:59:48;5.80;99.90
871;DHT22;422;51.280;7.236;2023-12-20T10:02:19;5.80;99.90
871;DHT22;422;51.280;7.236;2023-12-20T10:04:48;5.80;99.90
871;DHT22;422;51.280;7.236;2023-12-20T10:07:17;5.80;99.90
871;DHT22;422;51.280;7.236;2023-12-20T10:09:44;5.80;99.90
871;DHT22;422;51.280;7.236;2023-12-20T10:12:12;5.80;99.90
871;DHT22;422;51.280;7.236;2023-12-20T10:14:39;5.80;99.90
871;DHT22;422;51.280;7.236;2023-12-20T10:17:07;5.80;99.90
871;DHT22;422;51.280;7.236;2023-12-20T10:19:35;5.80;99.90
871;DHT22;422;51.280;7.236;2023-12-20T10:22:04;5.80;99.90
871;DHT22;422;51.280;7.236;2023-12-20T10:24:33;5.80;99.90
871;DHT22;422;51.280;7.236;2023-12-20T10:27:04;5.80;99.90
871;DHT22;422;51.280;7.236;2023-12-20T10:29:32;5.80;99.90
871;DHT22;422;51.280;7.236;2023-12-20T10:32:01;5.80;99.90
871;DHT22;422;51.280;7.236;2023-12-20T10:34:48;5.80;99.90
871;DHT22;422;51.280;7.236;2023-12-20T10:37:15;5.80;99.90
871;DHT22;422;51.280;7.236;2023-12-20T10:39:44;5.80;99.90
871;DHT22;422;51.280;7.236;2023-12-20T10:42:16;5.80;99.90
871;DHT22;422;51.280;7.236;2023-12-20T10:44:44;5.80;99.90
871;DHT22;422;51.280;7.236;2023-12-20T10:47:12;5.80;99.90
871;DHT22;422;51.280;7.236;2023-12-20T10:49:40;5.80;99.90
871;DHT22;422;51.280;7.236;2023-12-20T10:52:09;5.80;99.90
871;DHT22;422;51.280;7.236;2023-12-20T10:54:38;5.80;99.90
871;DHT22;422;51.280;7.236;2023-12-20T10:57:08;5.70;99.90
871;DHT22;422;51.280;7.236;2023-12-20T10:59:37;5.80;99.90
871;DHT22;422;51.280;7.236;2023-12-20T11:02:05;5.70;99.90
871;DHT22;422;51.280;7.236;2023-12-20T11:04:39;5.70;99.90
871;DHT22;422;51.280;7.236;2023-12-20T11:07:17;5.70;99.90
871;DHT22;422;51.280;7.236;2023-12-20T11:09:54;5.70;99.90
871;DHT22;422;51.280;7.236;2023-12-20T11:12:35;5.80;99.90
871;DHT22;422;51.280;7.236;2023-12-20T11:15:07;5.80;99.90
871;DHT22;422;51.280;7.236;2023-12-20T11:17:34;5.80;99.90
871;DHT22;422;51.280;7.236;2023-12-20T11:20:09;5.80;99.90
871;DHT22;422;51.280;7.236;2023-12-20T11:22:52;5.90;99.90
871;DHT22;422;51.280;7.236;2023-12-20T11:25:19;5.90;99.90
871;DHT22;422;51.280;7.236;2023-12-20T11:28:07;5.90;99.90
871;DHT22;422;51.280;7.236;2023-12-20T11:30:41;5.90;99.90
871;DHT22;422;51.280;7.236;2023-12-20T11:33:09;5.90;99.90
871;DHT22;422;51.280;7.236;2023-12-20T11:35:36;5.80;99.90
871;DHT22;422;51.280;7.236;2023-12-20T11:38:08;5.80;99.90
871;DHT22;422;51.280;7.236;2023-12-20T11:40:35;5.90;99.90
871;DHT22;422;51.280;7.236;2023-12-20T11:43:05;5.90;99.90
871;DHT22;422;51.280;7.236;2023-12-20T11:45:32;5.90;99.90
871;DHT22;422;51.280;7.236;2023-12-20T11:48:02;5.90;99.90
871;DHT22;422;51.280;7.236;2023-12-20T11:50:30;5.90;99.90
871;DHT22;422;51.280;7.236;2023-12-20T11:52:57;5.90;99.90
871;DHT22;422;51.280;7.236;2023-12-20T11:55:25;5.90;99.90
871;DHT22;422;51.280;7.236;2023-12-20T11:57:52;5.90;99.90
871;DHT22;422;51.280;7.236;2023-12-20T12:00:21;5.90;99.90
871;DHT22;422;51.280;7.236;2023-12-20T12:02:58;5.80;99.90
871;DHT22;422;51.280;7.236;2023-12-20T12:05:27;5.90;99.90
871;DHT22;422;51.280;7.236;2023-12-20T12:07:55;5.90;99.90
871;DHT22;422;51.280;7.236;2023-12-20T12:10:22;5.90;99.90
871;DHT22;422;51.280;7.236;2023-12-20T12:12:50;5.90;99.90
871;DHT22;422;51.280;7.236;2023-12-20T12:15:18;5.90;99.90
871;DHT22;422;51.280;7.236;2023-12-20T12:17:53;6.00;99.90
871;DHT22;422;51.280;7.236;2023-12-20T12:20:21;5.90;99.90
871;DHT22;422;51.280;7.236;2023-12-20T12:22:57;5.90;99.90
871;DHT22;422;51.280;7.236;2023-12-20T12:25:26;5.90;99.90
871;DHT22;422;51.280;7.236;2023-12-20T12:27:54;5.90;99.90
871;DHT22;422;51.280;7.236;2023-12-20T12:30:23;5.90;99.90
871;DHT22;422;51.280;7.236;2023-12-20T12:32:53;5.90;99.90
871;DHT22;422;51.280;7.236;2023-12-20T12:35:21;5.90;99.90
871;DHT22;422;51.280;7.236;2023-12-20T12:37:49;5.90;99.90
871;DHT22;422;51.280;7.236;2023-12-20T12:40:17;6.00;99.90
871;DHT22;422;51.280;7.236;2023-12-20T12:42:45;5.90;99.90
871;DHT22;422;51.280;7.236;2023-12-20T12:45:13;5.90;99.90
871;DHT22;422;51.280;7.236;2023-12-20T12:47:41;5.90;99.90
871;DHT22;422;51.280;7.236;2023-12-20T12:50:10;5.90;99.90
871;DHT22;422;51.280;7.236;2023-12-20T12:52:37;5.90;99.90
871;DHT22;422;51.280;7.236;2023-12-20T12:55:05;5.90;99.90
871;DHT22;422;51.280;7.236;2023-12-20T12:57:33;5.90;99.90
871;DHT22;422;51.280;7.236;2023-12-20T13:00:04;6.00;99.90
871;DHT22;422;51.280;7.236;2023-12-20T13:02:34;6.10;99.90
871;DHT22;422;51.280;7.236;2023-12-20T13:05:04;6.10;99.90
871;DHT22;422;51.280;7.236;2023-12-20T13:07:33;6.10;99.90
871;DHT22;422;51.280;7.236;2023-12-20T13:10:00;6.10;99.90
871;DHT22;422;51.280;7.236;2023-12-20T13:12:28;6.20;99.90
871;DHT22;422;51.280;7.236;2023-12-20T13:14:56;6.20;99.90
871;DHT22;422;51.280;7.236;2023-12-20T13:17:23;6.20;99.90
871;DHT22;422;51.280;7.236;2023-12-20T13:19:51;6.20;99.90
871;DHT22;422;51.280;7.236;2023-12-20T13:22:18;6.20;99.90
871;DHT22;422;51.280;7.236;2023-12-20T13:24:47;6.20;99.90
871;DHT22;422;51.280;7.236;2023-12-20T13:27:14;6.30;99.90
871;DHT22;422;51.280;7.236;2023-12-20T13:29:42;6.30;99.90
871;DHT22;422;51.280;7.236;2023-12-20T13:32:09;6.20;99.90
871;DHT22;422;51.280;7.236;2023-12-20T13:34:37;6.20;99.90
871;DHT22;422;51.280;7.236;2023-12-20T13:37:04;6.10;99.90
871;DHT22;422;51.280;7.236;2023-12-20T13:39:31;6.00;99.90
871;DHT22;422;51.280;7.236;2023-12-20T13:42:00;6.00;99.90
871;DHT22;422;51.280;7.236;2023-12-20T13:44:28;6.10;99.90
871;DHT22;422;51.280;7.236;2023-12-20T13:46:56;6.00;99.90
871;DHT22;422;51.280;7.236;2023-12-20T13:49:24;6.10;99.90
871;DHT22;422;51.280;7.236;2023-12-20T13:51:51;6.00;99.90
871;DHT22;422;51.280;7.236;2023-12-20T13:54:20;6.00;99.90
871;DHT22;422;51.280;7.236;2023-12-20T13:56:48;6.00;99.90
871;DHT22;422;51.280;7.236;2023-12-20T13:59:17;6.00;99.90
871;DHT22;422;51.280;7.236;2023-12-20T14:01:44;6.00;99.90
871;DHT22;422;51.280;7.236;2023-12-20T14:04:11;5.90;99.90
871;DHT22;422;51.280;7.236;2023-12-20T14:06:39;6.00;99.90
871;DHT22;422;51.280;7.236;2023-12-20T14:09:07;6.00;99.90
871;DHT22;422;51.280;7.236;2023-12-20T14:11:34;5.90;99.90
871;DHT22;422;51.280;7.236;2023-12-20T14:14:07;6.00;99.90
871;DHT22;422;51.280;7.236;2023-12-20T14:16:36;6.00;99.90
871;DHT22;422;51.280;7.236;2023-12-20T14:19:04;6.00;99.90
871;DHT22;422;51.280;7.236;2023-12-20T14:21:33;6.00;99.90
871;DHT22;422;51.280;7.236;2023-12-20T14:24:00;6.00;99.90
871;DHT22;422;51.280;7.236;2023-12-20T14:26:29;6.00;99.90
871;DHT22;422;51.280;7.236;2023-12-20T14:28:57;6.00;99.90
871;DHT22;422;51.280;7.236;2023-12-20T14:31:25;6.00;99.90
871;DHT22;422;51.280;7.236;2023-12-20T14:33:54;6.00;99.90
871;DHT22;422;51.280;7.236;2023-12-20T14:36:22;6.00;99.90
871;DHT22;422;51.280;7.236;2023-12-20T14:38:50;6.10;99.90
871;DHT22;422;51.280;7.236;2023-12-20T14:41:18;6.10;99.90
871;DHT22;422;51.280;7.236;2023-12-20T14:43:45;6.10;99.90
871;DHT22;422;51.280;7.236;2023-12-20T14:46:13;6.10;99.90
871;DHT22;422;51.280;7.236;2023-12-20T14:48:41;6.10;99.90
871;DHT22;422;51.280;7.236;2023-12-20T14:51:09;6.10;99.90
871;DHT22;422;51.280;7.236;2023-12-20T14:53:37;6.10;99.90
871;DHT22;422;51.280;7.236;2023-12-20T14:56:06;6.10;99.90
871;DHT22;422;51.280;7.236;2023-12-20T14:58:33;6.10;99.90
871;DHT22;422;51.280;7.236;2023-12-20T15:01:01;6.10;99.90
871;DHT22;422;51.280;7.236;2023-12-20T15:03:28;6.10;99.90
871;DHT22;422;51.280;7.236;2023-12-20T15:05:57;6.10;99.90
871;DHT22;422;51.280;7.236;2023-12-20T15:08:26;6.20;99.90
871;DHT22;422;51.280;7.236;2023-12-20T15:10:54;6.20;99.90
871;DHT22;422;51.280;7.236;2023-12-20T15:13:22;6.20;99.90
871;DHT22;422;51.280;7.236;2023-12-20T15:15:49;6.30;99.90
871;DHT22;422;51.280;7.236;2023-12-20T15:18:17;6.20;99.90
871;DHT22;422;51.280;7.236;2023-12-20T15:20:44;6.20;99.90
871;DHT22;422;51.280;7.236;2023-12-20T15:23:13;6.30;99.90
871;DHT22;422;51.280;7.236;2023-12-20T15:25:43;6.30;99.90
871;DHT22;422;51.280;7.236;2023-12-20T15:28:13;6.20;99.90
871;DHT22;422;51.280;7.236;2023-12-20T15:30:40;6.20;99.90
871;DHT22;422;51.280;7.236;2023-12-20T15:33:08;6.30;99.90
871;DHT22;422;51.280;7.236;2023-12-20T15:35:35;6.30;99.90
871;DHT22;422;51.280;7.236;2023-12-20T15:38:03;6.30;99.90
871;DHT22;422;51.280;7.236;2023-12-20T15:40:30;6.40;99.90
871;DHT22;422;51.280;7.236;2023-12-20T15:42:59;6.30;99.90
871;DHT22;422;51.280;7.236;2023-12-20T15:45:27;6.30;99.90
871;DHT22;422;51.280;7.236;2023-12-20T15:47:53;6.40;99.90
871;DHT22;422;51.280;7.236;2023-12-20T15:50:20;6.30;99.90
871;DHT22;422;51.280;7.236;2023-12-20T15:52:48;6.40;99.90
871;DHT22;422;51.280;7.236;2023-12-20T15:55:17;6.30;99.90
871;DHT22;422;51.280;7.236;2023-12-20T15:57:44;6.40;99.90
871;DHT22;422;51.280;7.236;2023-12-20T16:00:14;6.40;99.90
871;DHT22;422;51.280;7.236;2023-12-20T16:02:42;6.40;99.90
871;DHT22;422;51.280;7.236;2023-12-20T16:05:09;6.40;99.90
871;DHT22;422;51.280;7.236;2023-12-20T16:07:37;6.40;99.90
871;DHT22;422;51.280;7.236;2023-12-20T16:10:05;6.50;99.90
871;DHT22;422;51.280;7.236;2023-12-20T16:12:33;6.50;99.90
871;DHT22;422;51.280;7.236;2023-12-20T16:15:00;6.40;99.90
871;DHT22;422;51.280;7.236;2023-12-20T16:17:32;6.50;99.90
871;DHT22;422;51.280;7.236;2023-12-20T16:19:59;6.50;99.90
871;DHT22;422;51.280;7.236;2023-12-20T16:22:26;6.50;99.90
871;DHT22;422;51.280;7.236;2023-12-20T16:24:53;6.50;99.90
871;DHT22;422;51.280;7.236;2023-12-20T16:27:21;6.50;99.90
871;DHT22;422;51.280;7.236;2023-12-20T16:29:48;6.50;99.90
871;DHT22;422;51.280;7.236;2023-12-20T16:32:16;6.60;99.90
871;DHT22;422;51.280;7.236;2023-12-20T16:34:47;6.60;99.90
871;DHT22;422;51.280;7.236;2023-12-20T16:37:15;6.60;99.90
871;DHT22;422;51.280;7.236;2023-12-20T16:39:42;6.60;99.90
871;DHT22;422;51.280;7.236;2023-12-20T16:42:10;6.60;99.90
871;DHT22;422;51.280;7.236;2023-12-20T16:44:37;6.60;99.90
871;DHT22;422;51.280;7.236;2023-12-20T16:47:05;6.60;99.90
871;DHT22;422;51.280;7.236;2023-12-20T16:49:32;6.60;99.90
871;DHT22;422;51.280;7.236;2023-12-20T16:52:01;6.60;99.90
871;DHT22;422;51.280;7.236;2023-12-20T16:54:28;6.60;99.90
871;DHT22;422;51.280;7.236;2023-12-20T16:56:56;6.60;99.90